createdAt,value
2022-11-02T00:06:17.179Z,22.20
2022-11-02T00:20:17.158Z,23.40
2022-11-02T00:34:17.230Z,21.10
2022-11-02T00:48:17.198Z,20.50
2022-11-02T01:02:17.353Z,18.80
2022-11-02T01:16:17.213Z,17.10
2022-11-02T01:30:17.220Z,15.60
2022-11-02T01:44:17.236Z,15.10
2022-11-02T01:58:17.235Z,13.60
2022-11-02T02:12:17.244Z,13.50
2022-11-02T02:26:17.242Z,12.10
2022-11-02T02:40:17.249Z,11.50
2022-11-02T02:54:17.247Z,10.40
2022-11-02T03:08:17.267Z,11.90
2022-11-02T03:22:17.290Z,10.00
2022-11-02T03:36:17.305Z,9.00
2022-11-02T03:50:17.299Z,8.00
2022-11-02T04:04:17.359Z,7.40
2022-11-02T04:18:17.373Z,6.40
2022-11-02T04:32:17.403Z,9.00
2022-11-02T04:46:17.397Z,6.10
2022-11-02T05:00:17.564Z,5.80
2022-11-02T05:14:17.495Z,7.00
2022-11-02T05:28:17.481Z,7.30
2022-11-02T05:42:17.508Z,7.40
2022-11-02T05:57:17.507Z,6.50
2022-11-02T06:12:17.538Z,7.20
2022-11-02T06:28:17.523Z,8.30
2022-11-02T06:43:17.918Z,10.70
2022-11-02T06:58:17.549Z,10.20
2022-11-02T07:13:17.608Z,9.00
2022-11-02T07:28:17.582Z,8.45
2022-11-02T07:43:17.565Z,7.60
2022-11-02T07:58:17.578Z,7.50
2022-11-02T08:13:17.846Z,8.60
2022-11-02T08:28:17.737Z,8.50
2022-11-02T08:43:17.789Z,8.30
2022-11-02T08:58:17.773Z,9.80
2022-11-02T09:13:17.784Z,9.30
2022-11-02T09:28:17.772Z,6.80
2022-11-02T09:43:17.781Z,8.00
2022-11-02T09:58:17.907Z,6.40
2022-11-02T10:13:17.935Z,6.30
2022-11-02T10:28:18.014Z,7.20
2022-11-02T10:43:17.921Z,5.90
2022-11-02T10:58:17.920Z,4.90
2022-11-02T11:29:17.959Z,7.20
2022-11-02T11:44:17.964Z,7.65
2022-11-02T11:59:17.947Z,8.60
2022-11-02T12:14:17.957Z,12.70
2022-11-02T12:29:17.953Z,9.70
2022-11-02T12:44:17.977Z,11.20
2022-11-02T12:59:17.973Z,12.90
2022-11-02T13:14:17.988Z,21.90
2022-11-02T13:29:18.011Z,27.05
2022-11-02T13:44:18.001Z,26.60
2022-11-02T13:59:18.041Z,25.30
2022-11-02T14:14:18.024Z,21.10
2022-11-02T14:29:18.045Z,17.40
2022-11-02T14:44:18.065Z,18.50
2022-11-02T14:59:18.122Z,18.70
2022-11-02T15:14:18.068Z,15.80
2022-11-02T15:29:18.066Z,18.20
2022-11-02T15:44:18.098Z,16.40
2022-11-02T15:59:18.112Z,14.70
2022-11-02T16:14:18.120Z,12.10
2022-11-02T16:29:18.101Z,10.80
2022-11-02T16:43:18.132Z,11.20
2022-11-02T16:57:18.156Z,9.90
2022-11-02T17:11:18.175Z,8.60
2022-11-02T17:25:18.155Z,14.00
2022-11-02T17:39:18.192Z,7.50
2022-11-02T17:53:18.206Z,6.90
2022-11-02T18:07:18.198Z,7.80
2022-11-02T18:21:18.269Z,7.50
2022-11-02T18:35:18.222Z,15.20
2022-11-02T18:49:18.251Z,12.70
2022-11-02T19:03:18.211Z,14.30
2022-11-02T19:17:18.234Z,13.30
2022-11-02T19:31:18.217Z,12.50
2022-11-02T19:45:18.218Z,12.20
2022-11-02T19:59:18.210Z,11.40
2022-11-02T20:13:18.242Z,11.40
2022-11-02T20:27:18.237Z,13.30
2022-11-02T20:41:18.244Z,10.30
2022-11-02T20:55:18.252Z,10.50
2022-11-02T21:09:18.244Z,9.90
2022-11-02T21:23:18.277Z,10.40
2022-11-02T21:37:18.299Z,9.70
2022-11-02T21:51:18.273Z,8.90
2022-11-02T22:05:18.273Z,8.20
2022-11-02T22:19:18.280Z,8.20
2022-11-02T22:33:18.273Z,8.20
2022-11-02T22:47:18.294Z,8.60
2022-11-02T23:01:18.390Z,7.40
2022-11-02T23:15:18.285Z,8.40
2022-11-02T23:29:18.370Z,7.30
2022-11-02T23:43:18.363Z,7.60
2022-11-02T23:57:18.433Z,7.40
